sensor_id;sensor_type;location;lat;lon;timestamp;P1;durP1;ratioP1;P2;durP2;ratioP2
22673;SDS011;11504;43.334;21.918;2023-04-24T00:00:19;12.0;;;12.0;;
22673;SDS011;11504;43.334;21.918;2023-04-24T00:04:56;12.0;;;12.0;;
22673;SDS011;11504;43.334;21.918;2023-04-24T00:09:33;12.0;;;12.0;;
22673;SDS011;11504;43.334;21.918;2023-04-24T00:14:10;12.0;;;11.0;;
22673;SDS011;11504;43.334;21.918;2023-04-24T00:18:47;12.0;;;11.0;;
22673;SDS011;11504;43.334;21.918;2023-04-24T00:23:24;12.0;;;11.0;;
22673;SDS011;11504;43.334;21.918;2023-04-24T00:28:01;12.0;;;11.0;;
22673;SDS011;11504;43.334;21.918;2023-04-24T00:32:38;12.0;;;11.0;;
22673;SDS011;11504;43.334;21.918;2023-04-24T00:37:15;12.0;;;11.0;;
22673;SDS011;11504;43.334;21.918;2023-04-24T00:41:53;12.0;;;12.0;;
22673;SDS011;11504;43.334;21.918;2023-04-24T00:46:32;12.0;;;12.0;;
22673;SDS011;11504;43.334;21.918;2023-04-24T00:51:10;13.0;;;12.0;;
22673;SDS011;11504;43.334;21.918;2023-04-24T00:55:48;13.0;;;12.0;;
22673;SDS011;11504;43.334;21.918;2023-04-24T01:00:27;13.0;;;12.0;;
22673;SDS011;11504;43.334;21.918;2023-04-24T01:05:08;13.0;;;12.0;;
22673;SDS011;11504;43.334;21.918;2023-04-24T01:09:48;13.0;;;12.0;;
22673;SDS011;11504;43.334;21.918;2023-04-24T01:14:25;13.0;;;13.0;;
22673;SDS011;11504;43.334;21.918;2023-04-24T01:19:02;13.0;;;13.0;;
22673;SDS011;11504;43.334;21.918;2023-04-24T01:23:39;12.0;;;12.0;;
22673;SDS011;11504;43.334;21.918;2023-04-24T01:28:18;12.0;;;12.0;;
22673;SDS011;11504;43.334;21.918;2023-04-24T01:32:56;12.0;;;12.0;;
22673;SDS011;11504;43.334;21.918;2023-04-24T01:37:35;12.0;;;12.0;;
22673;SDS011;11504;43.334;21.918;2023-04-24T01:42:13;12.0;;;12.0;;
22673;SDS011;11504;43.334;21.918;2023-04-24T01:46:51;12.0;;;12.0;;
22673;SDS011;11504;43.334;21.918;2023-04-24T01:51:29;13.0;;;13.0;;
22673;SDS011;11504;43.334;21.918;2023-04-24T01:56:06;13.0;;;13.0;;
22673;SDS011;11504;43.334;21.918;2023-04-24T02:00:44;14.0;;;13.0;;
22673;SDS011;11504;43.334;21.918;2023-04-24T02:05:21;14.0;;;13.0;;
22673;SDS011;11504;43.334;21.918;2023-04-24T02:09:58;14.0;;;13.0;;
22673;SDS011;11504;43.334;21.918;2023-04-24T02:14:34;14.0;;;13.0;;
22673;SDS011;11504;43.334;21.918;2023-04-24T02:19:11;14.0;;;13.0;;
22673;SDS011;11504;43.334;21.918;2023-04-24T02:23:47;14.0;;;12.0;;
22673;SDS011;11504;43.334;21.918;2023-04-24T02:28:24;14.0;;;12.0;;
22673;SDS011;11504;43.334;21.918;2023-04-24T02:33:00;13.0;;;12.0;;
22673;SDS011;11504;43.334;21.918;2023-04-24T02:37:36;13.0;;;12.0;;
22673;SDS011;11504;43.334;21.918;2023-04-24T02:42:13;14.0;;;13.0;;
22673;SDS011;11504;43.334;21.918;2023-04-24T02:46:49;14.0;;;13.0;;
22673;SDS011;11504;43.334;21.918;2023-04-24T02:51:26;14.0;;;14.0;;
22673;SDS011;11504;43.334;21.918;2023-04-24T02:56:02;14.0;;;14.0;;
22673;SDS011;11504;43.334;21.918;2023-04-24T03:00:39;14.0;;;14.0;;
22673;SDS011;11504;43.334;21.918;2023-04-24T03:05:16;14.0;;;14.0;;
22673;SDS011;11504;43.334;21.918;2023-04-24T03:09:53;14.0;;;14.0;;
22673;SDS011;11504;43.334;21.918;2023-04-24T03:14:30;13.0;;;13.0;;
22673;SDS011;11504;43.334;21.918;2023-04-24T03:19:08;13.0;;;13.0;;
22673;SDS011;11504;43.334;21.918;2023-04-24T03:23:45;14.0;;;14.0;;
22673;SDS011;11504;43.334;21.918;2023-04-24T03:28:22;14.0;;;14.0;;
22673;SDS011;11504;43.334;21.918;2023-04-24T03:33:00;15.0;;;14.0;;
22673;SDS011;11504;43.334;21.918;2023-04-24T03:37:37;15.0;;;14.0;;
22673;SDS011;11504;43.334;21.918;2023-04-24T03:42:14;14.0;;;13.0;;
22673;SDS011;11504;43.334;21.918;2023-04-24T03:46:51;14.0;;;13.0;;
22673;SDS011;11504;43.334;21.918;2023-04-24T03:51:28;13.0;;;12.0;;
22673;SDS011;11504;43.334;21.918;2023-04-24T03:56:05;13.0;;;12.0;;
22673;SDS011;11504;43.334;21.918;2023-04-24T04:00:42;12.0;;;12.0;;
22673;SDS011;11504;43.334;21.918;2023-04-24T04:05:18;12.0;;;12.0;;
22673;SDS011;11504;43.334;21.918;2023-04-24T04:09:55;12.0;;;12.0;;
22673;SDS011;11504;43.334;21.918;2023-04-24T04:14:31;12.0;;;11.0;;
22673;SDS011;11504;43.334;21.918;2023-04-24T04:19:08;12.0;;;11.0;;
22673;SDS011;11504;43.334;21.918;2023-04-24T04:23:44;12.0;;;12.0;;
22673;SDS011;11504;43.334;21.918;2023-04-24T04:28:21;12.0;;;12.0;;
22673;SDS011;11504;43.334;21.918;2023-04-24T04:32:57;12.0;;;12.0;;
22673;SDS011;11504;43.334;21.918;2023-04-24T04:37:35;12.0;;;12.0;;
22673;SDS011;11504;43.334;21.918;2023-04-24T04:42:12;13.0;;;12.0;;
22673;SDS011;11504;43.334;21.918;2023-04-24T04:46:49;13.0;;;12.0;;
22673;SDS011;11504;43.334;21.918;2023-04-24T04:51:26;14.0;;;13.0;;
22673;SDS011;11504;43.334;21.918;2023-04-24T04:56:03;14.0;;;13.0;;
22673;SDS011;11504;43.334;21.918;2023-04-24T05:00:40;14.0;;;13.0;;
22673;SDS011;11504;43.334;21.918;2023-04-24T05:05:17;14.0;;;13.0;;
22673;SDS011;11504;43.334;21.918;2023-04-24T05:09:54;14.0;;;13.0;;
22673;SDS011;11504;43.334;21.918;2023-04-24T05:14:30;15.0;;;13.0;;
22673;SDS011;11504;43.334;21.918;2023-04-24T05:19:06;15.0;;;13.0;;
22673;SDS011;11504;43.334;21.918;2023-04-24T05:23:42;14.0;;;12.0;;
22673;SDS011;11504;43.334;21.918;2023-04-24T05:28:19;14.0;;;12.0;;
22673;SDS011;11504;43.334;21.918;2023-04-24T05:32:55;13.0;;;12.0;;
22673;SDS011;11504;43.334;21.918;2023-04-24T05:37:32;13.0;;;12.0;;
22673;SDS011;11504;43.334;21.918;2023-04-24T05:42:08;12.0;;;12.0;;
22673;SDS011;11504;43.334;21.918;2023-04-24T05:46:45;12.0;;;12.0;;
22673;SDS011;11504;43.334;21.918;2023-04-24T05:51:22;12.0;;;11.0;;
22673;SDS011;11504;43.334;21.918;2023-04-24T05:56:00;12.0;;;11.0;;
22673;SDS011;11504;43.334;21.918;2023-04-24T06:00:38;12.0;;;11.0;;
22673;SDS011;11504;43.334;21.918;2023-04-24T06:05:15;12.0;;;11.0;;
22673;SDS011;11504;43.334;21.918;2023-04-24T06:09:53;12.0;;;11.0;;
22673;SDS011;11504;43.334;21.918;2023-04-24T06:14:30;12.0;;;11.0;;
22673;SDS011;11504;43.334;21.918;2023-04-24T06:19:07;12.0;;;11.0;;
22673;SDS011;11504;43.334;21.918;2023-04-24T06:23:44;12.0;;;12.0;;
22673;SDS011;11504;43.334;21.918;2023-04-24T06:28:21;12.0;;;12.0;;
22673;SDS011;11504;43.334;21.918;2023-04-24T06:32:57;13.0;;;12.0;;
22673;SDS011;11504;43.334;21.918;2023-04-24T06:37:34;13.0;;;12.0;;
22673;SDS011;11504;43.334;21.918;2023-04-24T06:42:10;12.0;;;12.0;;
22673;SDS011;11504;43.334;21.918;2023-04-24T06:46:47;12.0;;;12.0;;
22673;SDS011;11504;43.334;21.918;2023-04-24T06:51:26;12.0;;;12.0;;
22673;SDS011;11504;43.334;21.918;2023-04-24T06:56:04;12.0;;;12.0;;
22673;SDS011;11504;43.334;21.918;2023-04-24T07:00:40;12.0;;;12.0;;
22673;SDS011;11504;43.334;21.918;2023-04-24T07:05:17;14.0;;;12.0;;
22673;SDS011;11504;43.334;21.918;2023-04-24T07:09:53;14.0;;;12.0;;
22673;SDS011;11504;43.334;21.918;2023-04-24T07:14:30;15.0;;;12.0;;
22673;SDS011;11504;43.334;21.918;2023-04-24T07:19:06;15.0;;;12.0;;
22673;SDS011;11504;43.334;21.918;2023-04-24T07:23:43;13.0;;;11.0;;
22673;SDS011;11504;43.334;21.918;2023-04-24T07:28:20;13.0;;;11.0;;
22673;SDS011;11504;43.334;21.918;2023-04-24T07:32:56;11.0;;;10.0;;
22673;SDS011;11504;43.334;21.918;2023-04-24T07:37:33;11.0;;;10.0;;
22673;SDS011;11504;43.334;21.918;2023-04-24T07:42:09;10.0;;;9.0;;
22673;SDS011;11504;43.334;21.918;2023-04-24T07:46:46;10.0;;;9.0;;
22673;SDS011;11504;43.334;21.918;2023-04-24T07:51:23;9.0;;;8.0;;
22673;SDS011;11504;43.334;21.918;2023-04-24T07:55:59;9.0;;;8.0;;
22673;SDS011;11504;43.334;21.918;2023-04-24T08:00:35;9.0;;;8.0;;
22673;SDS011;11504;43.334;21.918;2023-04-24T08:05:12;9.0;;;8.0;;
22673;SDS011;11504;43.334;21.918;2023-04-24T08:09:49;9.0;;;8.0;;
22673;SDS011;11504;43.334;21.918;2023-04-24T08:14:26;9.0;;;9.0;;
22673;SDS011;11504;43.334;21.918;2023-04-24T08:19:02;9.0;;;9.0;;
22673;SDS011;11504;43.334;21.918;2023-04-24T08:23:40;9.0;;;8.0;;
22673;SDS011;11504;43.334;21.918;2023-04-24T08:28:18;9.0;;;8.0;;
22673;SDS011;11504;43.334;21.918;2023-04-24T08:32:55;9.0;;;8.0;;
22673;SDS011;11504;43.334;21.918;2023-04-24T08:37:32;9.0;;;8.0;;
22673;SDS011;11504;43.334;21.918;2023-04-24T08:42:12;9.0;;;8.0;;
22673;SDS011;11504;43.334;21.918;2023-04-24T08:46:54;9.0;;;8.0;;
22673;SDS011;11504;43.334;21.918;2023-04-24T08:51:33;9.0;;;9.0;;
22673;SDS011;11504;43.334;21.918;2023-04-24T08:56:15;9.0;;;9.0;;
22673;SDS011;11504;43.334;21.918;2023-04-24T09:00:55;10.0;;;10.0;;
22673;SDS011;11504;43.334;21.918;2023-04-24T09:05:34;10.0;;;10.0;;
22673;SDS011;11504;43.334;21.918;2023-04-24T09:10:12;10.0;;;10.0;;
22673;SDS011;11504;43.334;21.918;2023-04-24T09:14:51;10.0;;;10.0;;
22673;SDS011;11504;43.334;21.918;2023-04-24T09:19:32;10.0;;;10.0;;
22673;SDS011;11504;43.334;21.918;2023-04-24T09:24:17;10.0;;;10.0;;
22673;SDS011;11504;43.334;21.918;2023-04-24T09:28:59;10.0;;;10.0;;
22673;SDS011;11504;43.334;21.918;2023-04-24T09:33:37;10.0;;;10.0;;
22673;SDS011;11504;43.334;21.918;2023-04-24T09:38:14;10.0;;;10.0;;
22673;SDS011;11504;43.334;21.918;2023-04-24T09:42:53;10.0;;;10.0;;
22673;SDS011;11504;43.334;21.918;2023-04-24T09:47:36;10.0;;;10.0;;
22673;SDS011;11504;43.334;21.918;2023-04-24T09:52:16;11.0;;;10.0;;
22673;SDS011;11504;43.334;21.918;2023-04-24T09:56:54;11.0;;;10.0;;
22673;SDS011;11504;43.334;21.918;2023-04-24T10:01:32;10.0;;;9.0;;
22673;SDS011;11504;43.334;21.918;2023-04-24T10:06:13;10.0;;;9.0;;
22673;SDS011;11504;43.334;21.918;2023-04-24T10:10:50;8.0;;;8.0;;
22673;SDS011;11504;43.334;21.918;2023-04-24T10:15:28;8.0;;;8.0;;
22673;SDS011;11504;43.334;21.918;2023-04-24T10:20:07;8.0;;;8.0;;
22673;SDS011;11504;43.334;21.918;2023-04-24T10:24:48;10.0;;;10.0;;
22673;SDS011;11504;43.334;21.918;2023-04-24T10:29:31;10.0;;;10.0;;
22673;SDS011;11504;43.334;21.918;2023-04-24T10:34:11;11.0;;;11.0;;
22673;SDS011;11504;43.334;21.918;2023-04-24T10:38:48;11.0;;;11.0;;
22673;SDS011;11504;43.334;21.918;2023-04-24T10:43:28;10.0;;;10.0;;
22673;SDS011;11504;43.334;21.918;2023-04-24T10:48:07;10.0;;;10.0;;
22673;SDS011;11504;43.334;21.918;2023-04-24T10:52:45;9.0;;;9.0;;
22673;SDS011;11504;43.334;21.918;2023-04-24T10:57:28;9.0;;;9.0;;
22673;SDS011;11504;43.334;21.918;2023-04-24T11:02:08;9.0;;;8.0;;
22673;SDS011;11504;43.334;21.918;2023-04-24T11:06:45;9.0;;;8.0;;
22673;SDS011;11504;43.334;21.918;2023-04-24T11:11:28;9.0;;;8.0;;
22673;SDS011;11504;43.334;21.918;2023-04-24T11:16:20;9.0;;;8.0;;
22673;SDS011;11504;43.334;21.918;2023-04-24T11:21:11;10.0;;;8.0;;
22673;SDS011;11504;43.334;21.918;2023-04-24T11:26:10;10.0;;;8.0;;
22673;SDS011;11504;43.334;21.918;2023-04-24T11:30:57;10.0;;;9.0;;
22673;SDS011;11504;43.334;21.918;2023-04-24T11:36:11;10.0;;;9.0;;
22673;SDS011;11504;43.334;21.918;2023-04-24T11:40:49;10.0;;;9.0;;
22673;SDS011;11504;43.334;21.918;2023-04-24T11:45:31;10.0;;;8.0;;
22673;SDS011;11504;43.334;21.918;2023-04-24T11:50:11;10.0;;;8.0;;
22673;SDS011;11504;43.334;21.918;2023-04-24T11:54:55;9.0;;;8.0;;
22673;SDS011;11504;43.334;21.918;2023-04-24T11:59:36;9.0;;;8.0;;
22673;SDS011;11504;43.334;21.918;2023-04-24T12:04:14;10.0;;;8.0;;
22673;SDS011;11504;43.334;21.918;2023-04-24T12:08:54;10.0;;;8.0;;
22673;SDS011;11504;43.334;21.918;2023-04-24T12:13:30;10.0;;;9.0;;
22673;SDS011;11504;43.334;21.918;2023-04-24T12:18:11;10.0;;;9.0;;
22673;SDS011;11504;43.334;21.918;2023-04-24T12:22:51;10.0;;;10.0;;
22673;SDS011;11504;43.334;21.918;2023-04-24T12:27:34;10.0;;;10.0;;
22673;SDS011;11504;43.334;21.918;2023-04-24T12:32:16;11.0;;;10.0;;
22673;SDS011;11504;43.334;21.918;2023-04-24T12:36:53;11.0;;;10.0;;
22673;SDS011;11504;43.334;21.918;2023-04-24T12:41:30;11.0;;;10.0;;
22673;SDS011;11504;43.334;21.918;2023-04-24T12:46:07;11.0;;;10.0;;
22673;SDS011;11504;43.334;21.918;2023-04-24T12:50:44;11.0;;;10.0;;
22673;SDS011;11504;43.334;21.918;2023-04-24T12:55:20;11.0;;;10.0;;
22673;SDS011;11504;43.334;21.918;2023-04-24T12:59:58;11.0;;;10.0;;
22673;SDS011;11504;43.334;21.918;2023-04-24T13:04:35;12.0;;;10.0;;
22673;SDS011;11504;43.334;21.918;2023-04-24T13:09:12;12.0;;;10.0;;
22673;SDS011;11504;43.334;21.918;2023-04-24T13:13:49;12.0;;;11.0;;
22673;SDS011;11504;43.334;21.918;2023-04-24T13:18:25;12.0;;;11.0;;
22673;SDS011;11504;43.334;21.918;2023-04-24T13:23:02;12.0;;;10.0;;
22673;SDS011;11504;43.334;21.918;2023-04-24T13:27:38;12.0;;;10.0;;
22673;SDS011;11504;43.334;21.918;2023-04-24T13:32:15;11.0;;;10.0;;
22673;SDS011;11504;43.334;21.918;2023-04-24T13:36:56;11.0;;;10.0;;
22673;SDS011;11504;43.334;21.918;2023-04-24T13:41:33;11.0;;;10.0;;
22673;SDS011;11504;43.334;21.918;2023-04-24T13:46:11;11.0;;;10.0;;
22673;SDS011;11504;43.334;21.918;2023-04-24T13:50:48;11.0;;;10.0;;
22673;SDS011;11504;43.334;21.918;2023-04-24T13:55:25;11.0;;;10.0;;
22673;SDS011;11504;43.334;21.918;2023-04-24T14:00:04;11.0;;;10.0;;
22673;SDS011;11504;43.334;21.918;2023-04-24T14:04:49;12.0;;;11.0;;
22673;SDS011;11504;43.334;21.918;2023-04-24T14:09:26;12.0;;;11.0;;
22673;SDS011;11504;43.334;21.918;2023-04-24T14:14:04;13.0;;;12.0;;
22673;SDS011;11504;43.334;21.918;2023-04-24T14:18:42;13.0;;;12.0;;
22673;SDS011;11504;43.334;21.918;2023-04-24T14:23:19;12.0;;;12.0;;
22673;SDS011;11504;43.334;21.918;2023-04-24T14:27:57;12.0;;;12.0;;
22673;SDS011;11504;43.334;21.918;2023-04-24T14:32:33;11.0;;;11.0;;
22673;SDS011;11504;43.334;21.918;2023-04-24T14:37:10;11.0;;;11.0;;
22673;SDS011;11504;43.334;21.918;2023-04-24T14:41:47;11.0;;;11.0;;
22673;SDS011;11504;43.334;21.918;2023-04-24T14:46:23;11.0;;;11.0;;
22673;SDS011;11504;43.334;21.918;2023-04-24T14:51:00;11.0;;;11.0;;
22673;SDS011;11504;43.334;21.918;2023-04-24T14:55:36;11.0;;;11.0;;
22673;SDS011;11504;43.334;21.918;2023-04-24T15:00:14;11.0;;;11.0;;
22673;SDS011;11504;43.334;21.918;2023-04-24T15:04:54;12.0;;;12.0;;
22673;SDS011;11504;43.334;21.918;2023-04-24T15:09:31;12.0;;;12.0;;
22673;SDS011;11504;43.334;21.918;2023-04-24T15:14:07;13.0;;;12.0;;
22673;SDS011;11504;43.334;21.918;2023-04-24T15:18:44;13.0;;;12.0;;
22673;SDS011;11504;43.334;21.918;2023-04-24T15:23:20;12.0;;;11.0;;
22673;SDS011;11504;43.334;21.918;2023-04-24T15:27:58;12.0;;;11.0;;
22673;SDS011;11504;43.334;21.918;2023-04-24T15:32:34;10.0;;;10.0;;
22673;SDS011;11504;43.334;21.918;2023-04-24T15:37:12;10.0;;;10.0;;
22673;SDS011;11504;43.334;21.918;2023-04-24T15:41:48;10.0;;;10.0;;
22673;SDS011;11504;43.334;21.918;2023-04-24T15:46:25;10.0;;;10.0;;
22673;SDS011;11504;43.334;21.918;2023-04-24T15:51:02;10.0;;;10.0;;
22673;SDS011;11504;43.334;21.918;2023-04-24T15:55:38;10.0;;;10.0;;
22673;SDS011;11504;43.334;21.918;2023-04-24T16:00:16;10.0;;;10.0;;
22673;SDS011;11504;43.334;21.918;2023-04-24T16:04:55;12.0;;;12.0;;
22673;SDS011;11504;43.334;21.918;2023-04-24T16:09:31;12.0;;;12.0;;
22673;SDS011;11504;43.334;21.918;2023-04-24T16:14:07;14.0;;;13.0;;
22673;SDS011;11504;43.334;21.918;2023-04-24T16:18:44;14.0;;;13.0;;
22673;SDS011;11504;43.334;21.918;2023-04-24T16:23:20;14.0;;;14.0;;
22673;SDS011;11504;43.334;21.918;2023-04-24T16:27:57;14.0;;;14.0;;
22673;SDS011;11504;43.334;21.918;2023-04-24T16:32:34;15.0;;;14.0;;
22673;SDS011;11504;43.334;21.918;2023-04-24T16:37:11;15.0;;;14.0;;
22673;SDS011;11504;43.334;21.918;2023-04-24T16:41:49;14.0;;;13.0;;
22673;SDS011;11504;43.334;21.918;2023-04-24T16:46:26;14.0;;;13.0;;
22673;SDS011;11504;43.334;21.918;2023-04-24T16:51:03;14.0;;;13.0;;
22673;SDS011;11504;43.334;21.918;2023-04-24T16:55:40;12.0;;;12.0;;
22673;SDS011;11504;43.334;21.918;2023-04-24T17:00:18;12.0;;;12.0;;
22673;SDS011;11504;43.334;21.918;2023-04-24T17:04:55;15.0;;;14.0;;
22673;SDS011;11504;43.334;21.918;2023-04-24T17:09:32;15.0;;;14.0;;
22673;SDS011;11504;43.334;21.918;2023-04-24T17:14:09;18.0;;;17.0;;
22673;SDS011;11504;43.334;21.918;2023-04-24T17:18:46;18.0;;;17.0;;
22673;SDS011;11504;43.334;21.918;2023-04-24T17:23:23;20.0;;;18.0;;
22673;SDS011;11504;43.334;21.918;2023-04-24T17:28:00;20.0;;;18.0;;
22673;SDS011;11504;43.334;21.918;2023-04-24T17:32:36;21.0;;;20.0;;
22673;SDS011;11504;43.334;21.918;2023-04-24T17:37:13;21.0;;;20.0;;
22673;SDS011;11504;43.334;21.918;2023-04-24T17:41:50;18.0;;;17.0;;
22673;SDS011;11504;43.334;21.918;2023-04-24T17:46:27;18.0;;;17.0;;
22673;SDS011;11504;43.334;21.918;2023-04-24T17:51:03;18.0;;;17.0;;
22673;SDS011;11504;43.334;21.918;2023-04-24T17:55:41;14.0;;;14.0;;
22673;SDS011;11504;43.334;21.918;2023-04-24T18:00:18;14.0;;;14.0;;
22673;SDS011;11504;43.334;21.918;2023-04-24T18:04:55;14.0;;;13.0;;
22673;SDS011;11504;43.334;21.918;2023-04-24T18:09:32;14.0;;;13.0;;
22673;SDS011;11504;43.334;21.918;2023-04-24T18:14:08;13.0;;;12.0;;
22673;SDS011;11504;43.334;21.918;2023-04-24T18:18:44;13.0;;;12.0;;
22673;SDS011;11504;43.334;21.918;2023-04-24T18:23:21;12.0;;;12.0;;
22673;SDS011;11504;43.334;21.918;2023-04-24T18:27:58;12.0;;;12.0;;
22673;SDS011;11504;43.334;21.918;2023-04-24T18:32:34;11.0;;;11.0;;
22673;SDS011;11504;43.334;21.918;2023-04-24T18:37:11;11.0;;;11.0;;
22673;SDS011;11504;43.334;21.918;2023-04-24T18:41:47;11.0;;;10.0;;
22673;SDS011;11504;43.334;21.918;2023-04-24T18:46:23;11.0;;;10.0;;
22673;SDS011;11504;43.334;21.918;2023-04-24T18:51:00;11.0;;;10.0;;
22673;SDS011;11504;43.334;21.918;2023-04-24T18:55:36;11.0;;;10.0;;
22673;SDS011;11504;43.334;21.918;2023-04-24T19:00:13;11.0;;;10.0;;
22673;SDS011;11504;43.334;21.918;2023-04-24T19:04:51;11.0;;;10.0;;
22673;SDS011;11504;43.334;21.918;2023-04-24T19:09:27;11.0;;;10.0;;
22673;SDS011;11504;43.334;21.918;2023-04-24T19:14:04;11.0;;;11.0;;
22673;SDS011;11504;43.334;21.918;2023-04-24T19:18:41;11.0;;;11.0;;
22673;SDS011;11504;43.334;21.918;2023-04-24T19:23:18;11.0;;;10.0;;
22673;SDS011;11504;43.334;21.918;2023-04-24T19:27:55;11.0;;;10.0;;
22673;SDS011;11504;43.334;21.918;2023-04-24T19:32:32;11.0;;;10.0;;
22673;SDS011;11504;43.334;21.918;2023-04-24T19:37:09;11.0;;;10.0;;
22673;SDS011;11504;43.334;21.918;2023-04-24T19:41:47;12.0;;;10.0;;
22673;SDS011;11504;43.334;21.918;2023-04-24T19:46:24;12.0;;;10.0;;
22673;SDS011;11504;43.334;21.918;2023-04-24T19:51:02;12.0;;;10.0;;
22673;SDS011;11504;43.334;21.918;2023-04-24T19:55:39;12.0;;;11.0;;
22673;SDS011;11504;43.334;21.918;2023-04-24T20:00:16;12.0;;;11.0;;
22673;SDS011;11504;43.334;21.918;2023-04-24T20:04:52;12.0;;;11.0;;
22673;SDS011;11504;43.334;21.918;2023-04-24T20:09:29;12.0;;;11.0;;
22673;SDS011;11504;43.334;21.918;2023-04-24T20:14:05;11.0;;;11.0;;
22673;SDS011;11504;43.334;21.918;2023-04-24T20:18:42;11.0;;;11.0;;
22673;SDS011;11504;43.334;21.918;2023-04-24T20:23:19;12.0;;;12.0;;
22673;SDS011;11504;43.334;21.918;2023-04-24T20:27:55;12.0;;;12.0;;
22673;SDS011;11504;43.334;21.918;2023-04-24T20:32:32;13.0;;;12.0;;
22673;SDS011;11504;43.334;21.918;2023-04-24T20:37:08;13.0;;;12.0;;
22673;SDS011;11504;43.334;21.918;2023-04-24T20:41:45;12.0;;;11.0;;
22673;SDS011;11504;43.334;21.918;2023-04-24T20:46:21;12.0;;;11.0;;
22673;SDS011;11504;43.334;21.918;2023-04-24T20:50:58;12.0;;;11.0;;
22673;SDS011;11504;43.334;21.918;2023-04-24T20:55:35;11.0;;;10.0;;
22673;SDS011;11504;43.334;21.918;2023-04-24T21:00:13;11.0;;;10.0;;
22673;SDS011;11504;43.334;21.918;2023-04-24T21:04:51;12.0;;;10.0;;
22673;SDS011;11504;43.334;21.918;2023-04-24T21:09:28;12.0;;;10.0;;
22673;SDS011;11504;43.334;21.918;2023-04-24T21:14:04;12.0;;;11.0;;
22673;SDS011;11504;43.334;21.918;2023-04-24T21:18:41;12.0;;;11.0;;
22673;SDS011;11504;43.334;21.918;2023-04-24T21:23:18;12.0;;;12.0;;
22673;SDS011;11504;43.334;21.918;2023-04-24T21:27:55;12.0;;;12.0;;
22673;SDS011;11504;43.334;21.918;2023-04-24T21:32:34;13.0;;;12.0;;
22673;SDS011;11504;43.334;21.918;2023-04-24T21:37:10;13.0;;;12.0;;
22673;SDS011;11504;43.334;21.918;2023-04-24T21:41:47;14.0;;;12.0;;
22673;SDS011;11504;43.334;21.918;2023-04-24T21:46:25;14.0;;;12.0;;
22673;SDS011;11504;43.334;21.918;2023-04-24T21:51:02;14.0;;;12.0;;
22673;SDS011;11504;43.334;21.918;2023-04-24T21:55:39;14.0;;;13.0;;
22673;SDS011;11504;43.334;21.918;2023-04-24T22:00:17;14.0;;;13.0;;
22673;SDS011;11504;43.334;21.918;2023-04-24T22:04:55;12.0;;;12.0;;
22673;SDS011;11504;43.334;21.918;2023-04-24T22:09:32;12.0;;;12.0;;
22673;SDS011;11504;43.334;21.918;2023-04-24T22:14:09;11.0;;;10.0;;
22673;SDS011;11504;43.334;21.918;2023-04-24T22:18:47;11.0;;;10.0;;
22673;SDS011;11504;43.334;21.918;2023-04-24T22:23:25;11.0;;;10.0;;
22673;SDS011;11504;43.334;21.918;2023-04-24T22:28:02;11.0;;;10.0;;
22673;SDS011;11504;43.334;21.918;2023-04-24T22:32:39;11.0;;;11.0;;
22673;SDS011;11504;43.334;21.918;2023-04-24T22:37:16;11.0;;;11.0;;
22673;SDS011;11504;43.334;21.918;2023-04-24T22:41:53;10.0;;;10.0;;
22673;SDS011;11504;43.334;21.918;2023-04-24T22:46:30;10.0;;;10.0;;
22673;SDS011;11504;43.334;21.918;2023-04-24T22:51:06;10.0;;;10.0;;
22673;SDS011;11504;43.334;21.918;2023-04-24T22:55:43;9.0;;;9.0;;
22673;SDS011;11504;43.334;21.918;2023-04-24T23:00:20;9.0;;;9.0;;
22673;SDS011;11504;43.334;21.918;2023-04-24T23:04:57;8.0;;;8.0;;
22673;SDS011;11504;43.334;21.918;2023-04-24T23:09:33;8.0;;;8.0;;
22673;SDS011;11504;43.334;21.918;2023-04-24T23:14:10;7.0;;;7.0;;
22673;SDS011;11504;43.334;21.918;2023-04-24T23:18:46;7.0;;;7.0;;
22673;SDS011;11504;43.334;21.918;2023-04-24T23:23:23;7.0;;;7.0;;
22673;SDS011;11504;43.334;21.918;2023-04-24T23:28:00;7.0;;;7.0;;
22673;SDS011;11504;43.334;21.918;2023-04-24T23:32:36;7.0;;;7.0;;
22673;SDS011;11504;43.334;21.918;2023-04-24T23:37:13;7.0;;;7.0;;
22673;SDS011;11504;43.334;21.918;2023-04-24T23:41:50;7.0;;;6.0;;
22673;SDS011;11504;43.334;21.918;2023-04-24T23:46:26;7.0;;;6.0;;
22673;SDS011;11504;43.334;21.918;2023-04-24T23:51:03;7.0;;;6.0;;
22673;SDS011;11504;43.334;21.918;2023-04-24T23:55:41;7.0;;;6.0;;
